Map

Track Data

SID SEASON NUMBER BASIN SUBBASIN NAME ISO_TIME NATURE LAT LON WMO_WIND WMO_PRES WMO_AGENCY TRACK_TYPE DIST2LAND LANDFALL IFLAG USA_AGENCY USA_ATCF_ID USA_LAT USA_LON USA_RECORD USA_STATUS USA_WIND USA_PRES USA_SSHS USA_R34_NE USA_R34_SE USA_R34_SW USA_R34_NW USA_R50_NE USA_R50_SE USA_R50_SW USA_R50_NW USA_R64_NE USA_R64_SE USA_R64_SW USA_R64_NW USA_POCI USA_ROCI USA_RMW USA_EYE TOKYO_LAT TOKYO_LON TOKYO_GRADE TOKYO_WIND TOKYO_PRES TOKYO_R50_DIR TOKYO_R50_LONG TOKYO_R50_SHORT TOKYO_R30_DIR TOKYO_R30_LONG TOKYO_R30_SHORT TOKYO_LAND CMA_LAT CMA_LON CMA_CAT CMA_WIND CMA_PRES HKO_LAT HKO_LON HKO_CAT HKO_WIND HKO_PRES NEWDELHI_LAT NEWDELHI_LON NEWDELHI_GRADE NEWDELHI_WIND NEWDELHI_PRES NEWDELHI_CI NEWDELHI_DP NEWDELHI_POCI REUNION_LAT REUNION_LON REUNION_TYPE REUNION_WIND REUNION_PRES REUNION_TNUM REUNION_CI REUNION_RMW REUNION_R34_NE REUNION_R34_SE REUNION_R34_SW REUNION_R34_NW REUNION_R50_NE REUNION_R50_SE REUNION_R50_SW REUNION_R50_NW REUNION_R64_NE REUNION_R64_SE REUNION_R64_SW REUNION_R64_NW BOM_LAT BOM_LON BOM_TYPE BOM_WIND BOM_PRES BOM_TNUM BOM_CI BOM_RMW BOM_R34_NE BOM_R34_SE BOM_R34_SW BOM_R34_NW BOM_R50_NE BOM_R50_SE BOM_R50_SW BOM_R50_NW BOM_R64_NE BOM_R64_SE BOM_R64_SW BOM_R64_NW BOM_ROCI BOM_POCI BOM_EYE BOM_POS_METHOD BOM_PRES_METHOD NADI_LAT NADI_LON NADI_CAT NADI_WIND NADI_PRES WELLINGTON_LAT WELLINGTON_LON WELLINGTON_WIND WELLINGTON_PRES DS824_LAT DS824_LON DS824_STAGE DS824_WIND DS824_PRES TD9636_LAT TD9636_LON TD9636_STAGE TD9636_WIND TD9636_PRES TD9635_LAT TD9635_LON TD9635_WIND TD9635_PRES TD9635_ROCI NEUMANN_LAT NEUMANN_LON NEUMANN_CLASS NEUMANN_WIND NEUMANN_PRES MLC_LAT MLC_LON MLC_CLASS MLC_WIND MLC_PRES USA_GUST BOM_GUST BOM_GUST_PER REUNION_GUST REUNION_GUST_PER USA_SEAHGT USA_SEARAD_NE USA_SEARAD_SE USA_SEARAD_SW USA_SEARAD_NW STORM_SPEED STORM_DIR
1984189N11265 1984 47 EP MM GENEVIEVE 1984-07-07 06:00:00 TS 10.5000 -95.5000 30 hurdat_epa main 573 555 O_________O___ hurdat_epa EP071984 10.5000 -95.5000 TD 30 -1 10.5000 -95.5000 1 30 7 305
1984189N11265 1984 47 EP MM GENEVIEVE 1984-07-07 09:00:00 TS 10.6990 -95.7942 main 555 529 P_________P___ EP071984 10.7001 -95.7974 TD 30 -1 10.6958 -95.7847 1 30 7 304
1984189N11265 1984 47 EP MM GENEVIEVE 1984-07-07 12:00:00 TS 10.9000 -96.1000 30 hurdat_epa main 529 504 O_________O___ hurdat_epa EP071984 10.9000 -96.1000 TD 30 -1 10.9000 -96.1000 1 30 7 303
1984189N11265 1984 47 EP MM GENEVIEVE 1984-07-07 15:00:00 TS 11.1042 -96.4323 main 504 481 P_________P___ EP071984 11.0999 -96.4201 TD 32 -1 11.1170 -96.4691 1 32 8 300
1984189N11265 1984 47 EP MM GENEVIEVE 1984-07-07 18:00:00 TS 11.3085 -96.8213 35 hurdat_epa main 481 462 O_________P___ hurdat_epa EP071984 11.3000 -96.8000 TS 35 0 11.3340 -96.8850 1 35 9 297
1984189N11265 1984 47 EP MM GENEVIEVE 1984-07-07 21:00:00 TS 11.5310 -97.2914 main 465 449 P_________P___ EP071984 11.5300 -97.2774 TS 37 0 11.5340 -97.3335 1 37 10 292
1984189N11265 1984 47 EP MM GENEVIEVE 1984-07-08 00:00:00 TS 11.7000 -97.8000 40 hurdat_epa main 455 455 O_________O___ hurdat_epa EP071984 11.7000 -97.8000 TS 40 0 11.7000 -97.8000 2 40 10 281
1984189N11265 1984 47 EP MM GENEVIEVE 1984-07-08 03:00:00 TS 11.7287 -98.3032 main 473 473 P_________P___ EP071984 11.7075 -98.3078 TS 45 0 11.7926 -98.2894 2 45 10 272
1984189N11265 1984 47 EP MM GENEVIEVE 1984-07-08 06:00:00 TS 11.7384 -98.7970 50 hurdat_epa main 493 484 O_________P___ hurdat_epa EP071984 11.7000 -98.8000 TS 50 0 11.8536 -98.7880 2 50 10 277
1984189N11265 1984 47 EP MM GENEVIEVE 1984-07-08 09:00:00 TS 11.8488 -99.2712 main 497 486 P_________P___ EP071984 11.8275 -99.2724 TS 55 0 11.9128 -99.2675 2 55 9 286
1984189N11265 1984 47 EP MM GENEVIEVE 1984-07-08 12:00:00 TS 12.0000 -99.7000 60 hurdat_epa main 492 490 O_________O___ hurdat_epa EP071984 12.0000 -99.7000 TS 60 0 12.0000 -99.7000 2 60 8 290
1984189N11265 1984 47 EP MM GENEVIEVE 1984-07-08 15:00:00 TS 12.1173 -100.042 main 493 483 P_________P___ EP071984 12.1198 -100.043 TS 62 0 12.1098 -100.038 2 62 7 294
1984189N11265 1984 47 EP MM GENEVIEVE 1984-07-08 18:00:00 TS 12.3000 -100.400 65 hurdat_epa main 488 474 O_________O___ hurdat_epa EP071984 12.3000 -100.400 HU 65 1 12.3000 -100.400 3 65 10 301
1984189N11265 1984 47 EP MM GENEVIEVE 1984-07-08 21:00:00 TS 12.6188 -100.889 main 476 448 P_________P___ EP071984 12.6201 -100.892 HU 65 1 12.6150 -100.880 3 65 12 306
1984189N11265 1984 47 EP MM GENEVIEVE 1984-07-09 00:00:00 TS 13.0000 -101.400 65 hurdat_epa main 452 437 O_________O___ hurdat_epa EP071984 13.0000 -101.400 HU 65 1 13.0000 -101.400 4 65 12 309
1984189N11265 1984 47 EP MM GENEVIEVE 1984-07-09 03:00:00 TS 13.3471 -101.817 main 442 419 P_________P___ EP071984 13.3423 -101.800 HU 70 1 13.3615 -101.867 4 71 11 311
1984189N11265 1984 47 EP MM GENEVIEVE 1984-07-09 06:00:00 TS 13.7081 -102.229 75 hurdat_epa main 419 392 O_________P___ hurdat_epa EP071984 13.7000 -102.200 HU 75 1 13.7325 -102.314 4 77 11 311
1984189N11265 1984 47 EP MM GENEVIEVE 1984-07-09 09:00:00 TS 14.0974 -102.697 main 397 379 P_________P___ EP071984 14.0924 -102.678 HU 82 1 14.1123 -102.755 4 83 12 310
1984189N11265 1984 47 EP MM GENEVIEVE 1984-07-09 12:00:00 TS 14.5000 -103.200 90 hurdat_epa main 385 366 O_________O___ hurdat_epa EP071984 14.5000 -103.200 HU 90 2 14.5000 -103.200 4 90 13 308
1984189N11265 1984 47 EP MM GENEVIEVE 1984-07-09 15:00:00 TS 14.8962 -103.741 main 366 341 P_________P___ EP071984 14.9001 -103.765 HU 90 2 14.8845 -103.668 4 90 13 308
1984189N11265 1984 47 EP MM GENEVIEVE 1984-07-09 18:00:00 TS 15.2943 -104.261 90 hurdat_epa main 345 317 O_________P___ hurdat_epa EP071984 15.3000 -104.300 HU 90 2 15.2772 -104.143 4 90 12 311
1984189N11265 1984 47 EP MM GENEVIEVE 1984-07-09 21:00:00 TS 15.6895 -104.686 main 317 299 P_________P___ EP071984 15.6922 -104.708 HU 90 2 15.6813 -104.622 4 90 11 315
1984189N11265 1984 47 EP MM GENEVIEVE 1984-07-10 00:00:00 TS 16.1000 -105.100 90 hurdat_epa main 299 292 O_________O___ hurdat_epa EP071984 16.1000 -105.100 HU 90 2 16.1000 -105.100 4 90 12 314
1984189N11265 1984 47 EP MM GENEVIEVE 1984-07-10 03:00:00 TS 16.5438 -105.593 main 300 276 P_________P___ EP071984 16.5425 -105.593 HU 90 2 16.5478 -105.595 4 90 13 313
1984189N11265 1984 47 EP MM GENEVIEVE 1984-07-10 06:00:00 TS 17.0019 -106.097 90 hurdat_epa main 281 269 O_________P___ hurdat_epa EP071984 17.0000 -106.100 HU 90 2 17.0075 -106.087 4 90 13 314
1984189N11265 1984 47 EP MM GENEVIEVE 1984-07-10 09:00:00 TS 17.4533 -106.564 main 268 268 P_________P___ EP071984 17.4499 -106.565 HU 90 2 17.4635 -106.561 4 90 12 316
1984189N11265 1984 47 EP MM GENEVIEVE 1984-07-10 12:00:00 TS 17.9000 -107.000 90 hurdat_epa main 269 260 O_________O___ hurdat_epa EP071984 17.9000 -107.000 HU 90 2 17.9000 -107.000 4 90 12 318
1984189N11265 1984 47 EP MM GENEVIEVE 1984-07-10 15:00:00 TS 18.3585 -107.422 main 264 264 P_________P___ EP071984 18.3724 -107.423 HU 95 2 18.3166 -107.419 4 92 12 319
1984189N11265 1984 47 EP MM GENEVIEVE 1984-07-10 18:00:00 TS 18.7774 -107.799 100 hurdat_epa main 276 276 O_________P___ hurdat_epa EP071984 18.8000 -107.800 HU 100 3 18.7097 -107.798 4 95 10 318
1984189N11265 1984 47 EP MM GENEVIEVE 1984-07-10 21:00:00 TS 19.1100 -108.124 main 290 290 P_________P___ EP071984 19.1224 -108.123 HU 100 3 19.0730 -108.128 4 97 8 318
1984189N11265 1984 47 EP MM GENEVIEVE 1984-07-11 00:00:00 TS 19.4000 -108.400 100 hurdat_epa main 303 299 O_________O___ hurdat_epa EP071984 19.4000 -108.400 HU 100 3 19.4000 -108.400 4 100 8 319
1984189N11265 1984 47 EP MM GENEVIEVE 1984-07-11 03:00:00 TS 19.7127 -108.674 main 322 320 P_________P___ EP071984 19.7150 -108.687 HU 95 2 19.7059 -108.632 4 95 7 323
1984189N11265 1984 47 EP MM GENEVIEVE 1984-07-11 06:00:00 TS 19.9936 -108.876 90 hurdat_epa main 336 313 O_________P___ hurdat_epa EP071984 20.0000 -108.900 HU 90 2 19.9746 -108.806 4 90 6 331
1984189N11265 1984 47 EP MM GENEVIEVE 1984-07-11 09:00:00 TS 20.2183 -108.972 main 313 291 P_________P___ EP071984 20.2224 -108.988 HU 85 2 20.2060 -108.926 4 85 4 344
1984189N11265 1984 47 EP MM GENEVIEVE 1984-07-11 12:00:00 TS 20.4000 -109.000 80 hurdat_epa main 291 270 O_________O___ hurdat_epa EP071984 20.4000 -109.000 HU 80 1 20.4000 -109.000 4 80 4 353
1984189N11265 1984 47 EP MM GENEVIEVE 1984-07-11 15:00:00 TS 20.5650 -109.016 main 270 259 P_________P___ EP071984 20.5650 -109.008 HU 72 1 20.5649 -109.039 4 76 3 0
1984189N11265 1984 47 EP MM GENEVIEVE 1984-07-11 18:00:00 TS 20.6987 -109.009 65 hurdat_epa main 259 248 O_________P___ hurdat_epa EP071984 20.7000 -109.000 HU 65 1 20.6949 -109.038 4 72 2 0
1984189N11265 1984 47 EP MM GENEVIEVE 1984-07-11 21:00:00 TS 20.8062 -109.004 main 248 238 P_________P___ EP071984 20.8075 -109.000 HU 65 1 20.8024 -109.017 4 68 2 4
1984189N11265 1984 47 EP MM GENEVIEVE 1984-07-12 00:00:00 TS 20.9000 -109.000 65 hurdat_epa main 238 227 O_________O___ hurdat_epa EP071984 20.9000 -109.000 HU 65 1 20.9000 -109.000 4 65 2 0
1984189N11265 1984 47 EP MM GENEVIEVE 1984-07-12 03:00:00 TS 21.0018 -108.995 main 227 217 P_________P___ EP071984 21.0000 -108.993 HU 60 0 21.0072 -109.002 4 61 2 0
1984189N11265 1984 47 EP MM GENEVIEVE 1984-07-12 06:00:00 TS 21.1019 -109.003 55 hurdat_epa main 217 207 O_________P___ hurdat_epa EP071984 21.1000 -109.000 TS 55 0 21.1074 -109.013 4 57 2 348
1984189N11265 1984 47 EP MM GENEVIEVE 1984-07-12 09:00:00 TS 21.2066 -109.037 main 207 192 P_________P___ EP071984 21.2075 -109.035 TS 52 0 21.2040 -109.042 4 53 2 336
1984189N11265 1984 47 EP MM GENEVIEVE 1984-07-12 12:00:00 TS 21.3000 -109.100 50 hurdat_epa main 192 178 O_________O___ hurdat_epa EP071984 21.3000 -109.100 TS 50 0 21.3000 -109.100 2 50 2 317
1984189N11265 1984 47 EP MM GENEVIEVE 1984-07-12 15:00:00 TS 21.3579 -109.186 main 178 175 P_________P___ EP071984 21.3425 -109.185 TS 50 0 21.4041 -109.188 2 50 2 305
1984189N11265 1984 47 EP MM GENEVIEVE 1984-07-12 18:00:00 TS 21.4269 -109.301 50 hurdat_epa main 175 151 O_________P___ hurdat_epa EP071984 21.4000 -109.300 TS 50 0 21.5075 -109.305 2 50 3 311
1984189N11265 1984 47 EP MM GENEVIEVE 1984-07-12 21:00:00 TS 21.5643 -109.437 main 151 135 P_________P___ EP071984 21.5500 -109.435 TS 50 0 21.6072 -109.444 2 50 4 315
1984189N11265 1984 47 EP MM GENEVIEVE 1984-07-13 00:00:00 TS 21.7000 -109.600 50 hurdat_epa main 135 122 O_________O___ hurdat_epa EP071984 21.7000 -109.600 TS 50 0 21.7000 -109.600 2 50 4 301
1984189N11265 1984 47 EP MM GENEVIEVE 1984-07-13 03:00:00 TS 21.7596 -109.792 main 122 122 P_________P___ EP071984 21.7575 -109.800 TS 47 0 21.7660 -109.769 2 46 4 287
1984189N11265 1984 47 EP MM GENEVIEVE 1984-07-13 06:00:00 TS 21.8069 -109.988 45 hurdat_epa main 122 112 O_________P___ hurdat_epa EP071984 21.8000 -110.000 TS 45 0 21.8276 -109.950 2 42 4 292
1984189N11265 1984 47 EP MM GENEVIEVE 1984-07-13 09:00:00 TS 21.8944 -110.151 main 113 102 P_________P___ EP071984 21.8925 -110.158 TS 40 0 21.9004 -110.131 2 38 3 304
1984189N11265 1984 47 EP MM GENEVIEVE 1984-07-13 12:00:00 TS 22.0000 -110.300 35 hurdat_epa main 105 98 O_________O___ hurdat_epa EP071984 22.0000 -110.300 TS 35 0 22.0000 -110.300 2 35 3 304
1984189N11265 1984 47 EP MM GENEVIEVE 1984-07-13 15:00:00 TS 22.0826 -110.457 main 103 93 P_________P___ EP071984 22.0775 -110.458 TS 35 0 22.0978 -110.455 2 33 3 307
1984189N11265 1984 47 EP MM GENEVIEVE 1984-07-13 18:00:00 TS 22.2077 -110.599 35 hurdat_epa main 99 90 O_________P___ hurdat_epa EP071984 22.2000 -110.600 TS 35 0 22.2307 -110.594 2 32 4 324
1984189N11265 1984 47 EP MM GENEVIEVE 1984-07-13 21:00:00 TS 22.4095 -110.714 main 90 84 P_________P___ EP071984 22.4050 -110.715 TS 32 -1 22.4232 -110.711 2 31 5 339
1984189N11265 1984 47 EP MM GENEVIEVE 1984-07-14 00:00:00 TS 22.7000 -110.800 30 hurdat_epa main 84 73 O_________O___ hurdat_epa EP071984 22.7000 -110.800 TD 30 -1 22.7000 -110.800 1 30 7 349
1984189N11265 1984 47 EP MM GENEVIEVE 1984-07-14 03:00:00 TS 23.0767 -110.858 main 73 37 P_________P___ EP071984 23.0775 -110.858 TD 27 -1 23.0727 -110.858 1 27 8 354
1984189N11265 1984 47 EP MM GENEVIEVE 1984-07-14 06:00:00 TS 23.5000 -110.900 25 hurdat_epa main 37 10 O_________O___ hurdat_epa EP071984 23.5000 -110.900 TD 25 -1 23.5000 -110.900 1 25 8 355
1984189N11265 1984 47 EP MM GENEVIEVE 1984-07-14 09:00:00 TS 23.9075 -110.947 main 10 0 P_____________ EP071984 23.9075 -110.947 TD 25 -1 1 8 354
1984189N11265 1984 47 EP MM GENEVIEVE 1984-07-14 12:00:00 ET 24.3000 -111.000 25 hurdat_epa main 0 O_____________ hurdat_epa EP071984 24.3000 -111.000 ET 25 -4 8 356

About IBTrACS Database

This database is a web-friendly format of International Best Track Archive for Climate Stewardship (IBTrACS), a global best track data archive curated by NOAA dating back to 1842.

Updated: 2021-10-08